createdAt,value
2019-06-01T00:00:11.023Z,101051.13
2019-06-01T00:02:34.720Z,101051.53
2019-06-01T00:05:06.790Z,101050.69
2019-06-01T00:07:39.080Z,101048.05
2019-06-01T00:10:11.759Z,101058.78
2019-06-01T00:12:43.669Z,101055.54
2019-06-01T00:15:15.730Z,101058.92
2019-06-01T00:17:47.972Z,101060.95
2019-06-01T00:20:21.274Z,101061.22
2019-06-01T00:22:53.251Z,101063.73
2019-06-01T00:25:25.544Z,101063.25
2019-06-01T00:27:57.437Z,101060.72
2019-06-01T00:30:29.684Z,101068.80
2019-06-01T00:33:01.566Z,101062.18
2019-06-01T00:35:33.609Z,101056.16
2019-06-01T00:38:05.857Z,101061.20
2019-06-01T00:40:38.669Z,101055.67
2019-06-01T00:43:10.520Z,101061.94
2019-06-01T00:45:44.386Z,101049.53
2019-06-01T00:48:16.315Z,101061.69
2019-06-01T00:50:49.135Z,101061.58
2019-06-01T00:53:21.499Z,101073.48
2019-06-01T00:55:53.693Z,101071.81
2019-06-01T00:58:25.656Z,101070.57
2019-06-01T01:00:57.520Z,101074.43
2019-06-01T01:03:29.427Z,101078.52
2019-06-01T01:06:01.481Z,101076.44
2019-06-01T01:08:33.531Z,101077.05
2019-06-01T01:11:05.917Z,101081.86
2019-06-01T01:13:37.805Z,101074.63
2019-06-01T01:16:09.693Z,101072.80
2019-06-01T01:18:41.488Z,101070.61
2019-06-01T01:21:13.550Z,101079.04
2019-06-01T01:23:46.169Z,101077.94
2019-06-01T01:26:18.406Z,101074.42
2019-06-01T01:28:50.986Z,101086.34
2019-06-01T01:31:22.948Z,101089.86
2019-06-01T01:33:55.497Z,101090.46
2019-06-01T01:36:27.908Z,101084.89
2019-06-01T01:38:59.677Z,101087.31
2019-06-01T01:41:31.570Z,101086.21
2019-06-01T01:44:03.742Z,101085.83
2019-06-01T01:46:35.861Z,101088.97
2019-06-01T01:49:08.823Z,101086.16
2019-06-01T01:51:40.749Z,101091.72
2019-06-01T01:54:12.834Z,101089.90
2019-06-01T01:56:44.947Z,101090.84
2019-06-01T01:59:16.784Z,101087.59
2019-06-01T02:01:48.732Z,101086.62
2019-06-01T02:04:20.595Z,101083.59
2019-06-01T02:06:52.405Z,101080.11
2019-06-01T02:09:24.292Z,101082.60
2019-06-01T02:11:57.585Z,101085.84
2019-06-01T02:14:30.162Z,101086.91
2019-06-01T02:17:02.535Z,101084.13
2019-06-01T02:19:36.506Z,101089.91
2019-06-01T02:22:08.990Z,101087.38
2019-06-01T02:24:41.110Z,101083.24
2019-06-01T02:27:12.915Z,101082.89
2019-06-01T02:29:44.718Z,101094.42
2019-06-01T02:32:16.547Z,101094.64
2019-06-01T02:34:48.350Z,101092.25
2019-06-01T02:37:20.098Z,101093.91
2019-06-01T02:39:52.100Z,101099.80
2019-06-01T02:42:23.895Z,101095.45
2019-06-01T02:44:57.288Z,101107.25
2019-06-01T02:47:29.285Z,101103.98
2019-06-01T02:50:01.366Z,101108.06
2019-06-01T02:52:34.800Z,101108.17
2019-06-01T02:55:07.313Z,101105.07
2019-06-01T02:57:39.434Z,101105.31
2019-06-01T03:00:11.737Z,101107.85
2019-06-01T03:02:45.018Z,101112.55
2019-06-01T03:05:16.786Z,101115.70
2019-06-01T03:07:52.725Z,101120.68
2019-06-01T03:10:25.091Z,101120.24
2019-06-01T03:13:02.088Z,101123.30
2019-06-01T03:15:36.967Z,101118.15
2019-06-01T03:18:11.865Z,101126.27
2019-06-01T03:20:48.527Z,101123.30
2019-06-01T03:23:23.449Z,101132.96
2019-06-01T03:25:59.868Z,101133.36
2019-06-01T03:28:37.213Z,101138.06
2019-06-01T03:31:10.689Z,101135.34
2019-06-01T03:33:42.681Z,101132.51
2019-06-01T03:36:14.454Z,101133.61
2019-06-01T03:38:47.013Z,101135.92
2019-06-01T03:41:19.247Z,101139.30
2019-06-01T03:43:51.162Z,101142.33
2019-06-01T03:46:22.955Z,101146.19
2019-06-01T03:48:55.293Z,101145.98
2019-06-01T03:51:28.028Z,101152.23
2019-06-01T03:54:00.899Z,101149.95
2019-06-01T03:56:33.171Z,101148.87
2019-06-01T03:59:05.139Z,101147.19
2019-06-01T04:01:37.002Z,101151.64
2019-06-01T04:04:11.264Z,101147.28
2019-06-01T04:06:43.212Z,101156.48
2019-06-01T04:09:14.987Z,101155.12
2019-06-01T04:11:47.041Z,101152.11
2019-06-01T04:14:18.934Z,101155.58
2019-06-01T04:16:50.768Z,101151.94
2019-06-01T04:19:22.851Z,101161.33
2019-06-01T04:21:54.628Z,101167.98
2019-06-01T04:24:28.716Z,101169.81
2019-06-01T04:27:00.552Z,101165.47
2019-06-01T04:29:33.662Z,101172.35
2019-06-01T04:32:06.506Z,101171.00
2019-06-01T04:34:38.578Z,101161.95
2019-06-01T04:37:11.284Z,101168.64
2019-06-01T04:39:43.351Z,101169.35
2019-06-01T04:42:15.822Z,101167.28
2019-06-01T04:44:48.015Z,101173.75
2019-06-01T04:47:19.790Z,101183.74
2019-06-01T04:49:51.787Z,101183.31
2019-06-01T04:52:23.545Z,101183.14
2019-06-01T04:54:55.383Z,101181.07
2019-06-01T04:57:27.489Z,101181.31
2019-06-01T04:59:59.297Z,101182.43
2019-06-01T05:02:31.112Z,101180.31
2019-06-01T05:05:02.945Z,101182.18
2019-06-01T05:07:34.711Z,101176.48
2019-06-01T05:10:07.564Z,101182.37
2019-06-01T05:12:39.843Z,101174.34
2019-06-01T05:15:16.086Z,101178.16
2019-06-01T05:17:48.057Z,101172.84
2019-06-01T05:20:20.717Z,101173.16
2019-06-01T05:22:55.167Z,101173.09
2019-06-01T05:25:28.841Z,101168.45
2019-06-01T05:28:00.883Z,101164.77
2019-06-01T05:30:32.705Z,101161.67
2019-06-01T05:33:18.576Z,101166.94
2019-06-01T05:35:39.022Z,101160.74
2019-06-01T05:38:12.197Z,101166.07
2019-06-01T05:40:44.343Z,101158.61
2019-06-01T05:43:19.267Z,101168.91
2019-06-01T05:45:51.634Z,101162.64
2019-06-01T05:48:28.449Z,101167.58
2019-06-01T05:50:58.458Z,101158.41
2019-06-01T05:53:31.425Z,101153.84
2019-06-01T05:56:03.249Z,101151.91
2019-06-01T05:58:35.273Z,101156.92
2019-06-01T06:01:07.099Z,101151.35
2019-06-01T06:03:40.597Z,101155.45
2019-06-01T06:06:13.742Z,101152.37
2019-06-01T06:08:45.932Z,101150.52
2019-06-01T06:11:19.019Z,101151.00
2019-06-01T06:13:51.285Z,101158.70
2019-06-01T06:16:23.117Z,101154.30
2019-06-01T06:18:54.932Z,101156.04
2019-06-01T06:21:27.010Z,101153.91
2019-06-01T06:23:58.760Z,101155.20
2019-06-01T06:26:30.835Z,101155.42
2019-06-01T06:29:02.885Z,101166.22
2019-06-01T06:31:34.852Z,101163.39
2019-06-01T06:34:06.633Z,101166.31
2019-06-01T06:36:38.778Z,101163.74
2019-06-01T06:39:10.577Z,101163.67
2019-06-01T06:41:42.721Z,101167.82
2019-06-01T06:44:16.327Z,101169.53
2019-06-01T06:46:48.336Z,101170.22
2019-06-01T06:49:21.292Z,101173.50
2019-06-01T06:51:54.545Z,101177.25
2019-06-01T06:54:26.360Z,101170.91
2019-06-01T06:56:59.716Z,101170.55
2019-06-01T06:59:32.780Z,101175.43
2019-06-01T07:02:04.985Z,101176.94
2019-06-01T07:04:36.752Z,101175.93
2019-06-01T07:07:08.553Z,101177.89
2019-06-01T07:09:41.939Z,101172.48
2019-06-01T07:12:14.065Z,101174.06
2019-06-01T07:14:45.930Z,101180.61
2019-06-01T07:17:18.345Z,101178.95
2019-06-01T07:19:51.149Z,101178.81
2019-06-01T07:22:23.785Z,101177.50
2019-06-01T07:24:56.357Z,101179.20
2019-06-01T07:27:28.497Z,101182.63
2019-06-01T07:30:00.331Z,101183.44
2019-06-01T07:32:32.887Z,101179.94
2019-06-01T07:35:05.192Z,101175.91
2019-06-01T07:37:37.171Z,101176.78
2019-06-01T07:40:13.386Z,101175.57
2019-06-01T07:42:43.255Z,101175.50
2019-06-01T07:45:16.151Z,101178.59
2019-06-01T07:47:48.137Z,101179.79
2019-06-01T07:50:19.968Z,101177.25
2019-06-01T07:52:53.250Z,101178.95
2019-06-01T07:55:25.479Z,101173.91
2019-06-01T07:57:57.708Z,101177.77
2019-06-01T08:00:29.514Z,101180.12
2019-06-01T08:03:01.327Z,101181.78
2019-06-01T08:05:33.306Z,101186.63
2019-06-01T08:08:06.261Z,101187.16
2019-06-01T08:10:38.132Z,101189.08
2019-06-01T08:13:10.082Z,101189.45
2019-06-01T08:15:41.939Z,101190.20
2019-06-01T08:18:14.021Z,101181.51
2019-06-01T08:20:45.890Z,101180.90
2019-06-01T08:23:19.024Z,101186.05
2019-06-01T08:25:50.842Z,101182.23
2019-06-01T08:28:22.601Z,101174.53
2019-06-01T08:30:54.638Z,101175.56
2019-06-01T08:33:30.180Z,101180.55
2019-06-01T08:36:00.023Z,101181.86
2019-06-01T08:38:31.913Z,101181.25
2019-06-01T08:41:04.109Z,101175.31
2019-06-01T08:43:36.319Z,101186.14
2019-06-01T08:46:08.350Z,101177.62
2019-06-01T08:48:40.188Z,101180.80
2019-06-01T08:51:12.007Z,101172.16
2019-06-01T08:53:45.454Z,101183.45
2019-06-01T08:56:21.069Z,101182.97
2019-06-01T08:58:52.917Z,101180.04
2019-06-01T09:01:24.788Z,101176.53
2019-06-01T09:03:57.765Z,101177.00
2019-06-01T09:06:30.874Z,101176.03
2019-06-01T09:09:03.033Z,101170.92
2019-06-01T09:11:35.349Z,101178.41
2019-06-01T09:14:07.499Z,101171.30
2019-06-01T09:16:39.580Z,101171.48
2019-06-01T09:19:11.852Z,101178.32
2019-06-01T09:21:43.771Z,101179.37
2019-06-01T09:24:15.615Z,101171.36
2019-06-01T09:26:47.437Z,101176.59
2019-06-01T09:29:19.264Z,101173.27
2019-06-01T09:31:51.087Z,101173.41
2019-06-01T09:34:23.069Z,101170.15
2019-06-01T09:36:55.723Z,101171.30
2019-06-01T09:39:29.087Z,101172.86
2019-06-01T09:42:01.281Z,101169.97
2019-06-01T09:44:35.211Z,101168.17
2019-06-01T09:47:07.370Z,101168.89
2019-06-01T09:49:39.243Z,101170.13
2019-06-01T09:52:12.995Z,101164.53
2019-06-01T09:54:45.138Z,101167.02
2019-06-01T09:57:16.960Z,101163.27
2019-06-01T09:59:50.088Z,101161.52
2019-06-01T10:02:22.217Z,101160.03
2019-06-01T10:04:54.312Z,101155.06
2019-06-01T10:07:26.217Z,101155.23
2019-06-01T10:09:58.443Z,101160.52
2019-06-01T10:12:30.251Z,101155.80
2019-06-01T10:15:02.362Z,101160.39
2019-06-01T10:17:35.143Z,101160.61
2019-06-01T10:20:07.956Z,101157.84
2019-06-01T10:22:39.846Z,101153.04
2019-06-01T10:25:12.395Z,101158.67
2019-06-01T10:27:44.204Z,101152.45
2019-06-01T10:30:16.571Z,101153.68
2019-06-01T10:32:48.734Z,101154.96
2019-06-01T10:35:20.818Z,101151.27
2019-06-01T10:37:52.616Z,101149.70
2019-06-01T10:40:25.300Z,101144.00
2019-06-01T10:42:57.168Z,101136.91
2019-06-01T10:45:29.211Z,101140.13
2019-06-01T10:48:01.035Z,101135.04
2019-06-01T10:50:34.883Z,101132.67
2019-06-01T10:53:06.648Z,101141.70
2019-06-01T10:55:38.801Z,101124.41
2019-06-01T10:58:10.662Z,101129.67
2019-06-01T11:00:50.059Z,101136.61
2019-06-01T11:03:16.198Z,101130.04
2019-06-01T11:05:48.065Z,101122.55
2019-06-01T11:08:20.004Z,101120.05
2019-06-01T11:10:52.104Z,101122.67
2019-06-01T11:13:23.896Z,101120.23
2019-06-01T11:15:55.949Z,101126.11
2019-06-01T11:18:27.781Z,101118.09
2019-06-01T11:20:59.786Z,101118.34
2019-06-01T11:23:31.737Z,101118.94
2019-06-01T11:26:03.804Z,101115.08
2019-06-01T11:28:37.985Z,101118.02
2019-06-01T11:31:10.430Z,101116.68
2019-06-01T11:33:42.338Z,101115.31
2019-06-01T11:36:14.424Z,101113.09
2019-06-01T11:38:46.252Z,101106.72
2019-06-01T11:41:18.800Z,101105.77
2019-06-01T11:43:50.994Z,101103.94
2019-06-01T11:46:23.096Z,101099.67
2019-06-01T11:48:55.184Z,101096.31
2019-06-01T11:51:27.215Z,101099.11
2019-06-01T11:53:59.125Z,101097.66
2019-06-01T11:56:30.935Z,101097.95
2019-06-01T11:59:03.209Z,101092.25
2019-06-01T12:01:39.749Z,101098.95
2019-06-01T12:04:12.080Z,101090.65
2019-06-01T12:06:44.153Z,101082.47
2019-06-01T12:09:15.986Z,101088.36
2019-06-01T12:11:47.954Z,101081.97
2019-06-01T12:14:19.781Z,101085.33
2019-06-01T12:16:51.894Z,101079.93
2019-06-01T12:19:24.366Z,101076.05
2019-06-01T12:21:56.424Z,101082.03
2019-06-01T12:24:28.221Z,101080.31
2019-06-01T12:27:00.367Z,101081.75
2019-06-01T12:29:32.242Z,101072.16
2019-06-01T12:32:04.301Z,101078.79
2019-06-01T12:34:37.984Z,101073.36
2019-06-01T12:37:10.270Z,101082.19
2019-06-01T12:39:42.343Z,101072.97
2019-06-01T12:42:14.244Z,101064.95
2019-06-01T12:44:46.068Z,101066.84
2019-06-01T12:47:18.223Z,101063.80
2019-06-01T12:49:50.059Z,101062.47
2019-06-01T12:52:22.031Z,101066.94
2019-06-01T12:54:53.855Z,101060.06
2019-06-01T12:57:25.713Z,101051.28
2019-06-01T12:59:57.512Z,101055.76
2019-06-01T13:02:29.598Z,101052.39
2019-06-01T13:05:01.600Z,101044.70
2019-06-01T13:07:50.570Z,101039.70
2019-06-01T13:10:09.840Z,101036.86
2019-06-01T13:12:43.010Z,101037.75
2019-06-01T13:15:15.312Z,101038.16
2019-06-01T13:17:47.351Z,101032.34
2019-06-01T13:20:19.965Z,101028.76
2019-06-01T13:22:52.046Z,101031.34
2019-06-01T13:25:24.443Z,101025.88
2019-06-01T13:27:56.558Z,101016.95
2019-06-01T13:30:30.063Z,101012.87
2019-06-01T13:33:01.883Z,101016.80
2019-06-01T13:35:34.059Z,101012.77
2019-06-01T13:38:12.417Z,101017.61
2019-06-01T13:40:39.814Z,101004.21
2019-06-01T13:43:11.652Z,101011.09
2019-06-01T13:45:43.454Z,101011.52
2019-06-01T13:48:15.437Z,101007.59
2019-06-01T13:50:47.804Z,101005.92
2019-06-01T13:53:20.021Z,101008.64
2019-06-01T13:55:52.810Z,101006.62
2019-06-01T13:58:25.212Z,101006.91
2019-06-01T14:00:57.105Z,100999.22
2019-06-01T14:03:28.945Z,100992.07
2019-06-01T14:06:01.164Z,100996.73
2019-06-01T14:08:33.346Z,100995.39
2019-06-01T14:11:05.171Z,100995.75
2019-06-01T14:13:37.274Z,100992.30
2019-06-01T14:16:09.171Z,100983.55
2019-06-01T14:18:41.184Z,100982.76
2019-06-01T14:21:13.292Z,100978.41
2019-06-01T14:23:45.759Z,100973.73
2019-06-01T14:26:17.763Z,100965.45
2019-06-01T14:28:50.143Z,100964.95
2019-06-01T14:31:22.081Z,100969.00
2019-06-01T14:33:54.871Z,100977.10
2019-06-01T14:36:26.928Z,100974.02
2019-06-01T14:38:59.157Z,100968.30
2019-06-01T14:41:31.061Z,100960.14
2019-06-01T14:44:03.190Z,100977.10
2019-06-01T14:46:43.817Z,100965.33
2019-06-01T14:49:08.956Z,100970.11
2019-06-01T14:51:41.012Z,100951.72
2019-06-01T14:54:12.933Z,100952.45
2019-06-01T14:56:44.810Z,100944.86
2019-06-01T14:59:16.610Z,100941.38
2019-06-01T15:01:48.390Z,100935.85
2019-06-01T15:04:21.879Z,100933.20
2019-06-01T15:06:54.379Z,100935.19
2019-06-01T15:09:26.536Z,100921.80
2019-06-01T15:11:58.712Z,100929.14
2019-06-01T15:14:30.948Z,100920.56
2019-06-01T15:17:02.783Z,100917.98
2019-06-01T15:19:34.644Z,100909.45
2019-06-01T15:22:07.235Z,100905.06
2019-06-01T15:24:39.210Z,100913.88
2019-06-01T15:27:11.015Z,100902.77
2019-06-01T15:29:43.161Z,100902.34
2019-06-01T15:32:14.937Z,100903.80
2019-06-01T15:34:47.122Z,100900.77
2019-06-01T15:37:19.055Z,100901.35
2019-06-01T15:39:50.825Z,100893.01
2019-06-01T15:42:22.607Z,100891.33
2019-06-01T15:44:55.071Z,100890.67
2019-06-01T15:47:28.301Z,100883.17
2019-06-01T15:50:00.286Z,100883.45
2019-06-01T15:52:32.036Z,100886.72
2019-06-01T15:55:03.829Z,100880.58
2019-06-01T15:57:35.660Z,100884.03
2019-06-01T16:00:09.166Z,100873.69
2019-06-01T16:02:41.098Z,100866.53
2019-06-01T16:05:14.249Z,100866.53
2019-06-01T16:07:46.164Z,100864.31
2019-06-01T16:10:18.150Z,100862.06
2019-06-01T16:12:49.916Z,100859.06
2019-06-01T16:15:21.861Z,100857.44
2019-06-01T16:17:55.800Z,100859.23
2019-06-01T16:20:27.844Z,100853.16
2019-06-01T16:23:00.332Z,100852.52
2019-06-01T16:25:32.451Z,100841.97
2019-06-01T16:28:05.549Z,100839.05
2019-06-01T16:30:37.737Z,100839.47
2019-06-01T16:33:09.572Z,100830.30
2019-06-01T16:35:41.444Z,100834.75
2019-06-01T16:38:13.476Z,100834.20
2019-06-01T16:40:45.497Z,100836.06
2019-06-01T16:43:17.788Z,100835.12
2019-06-01T16:45:49.870Z,100828.05
2019-06-01T16:48:21.762Z,100832.71
2019-06-01T16:50:53.968Z,100826.14
2019-06-01T16:53:26.025Z,100824.83
2019-06-01T16:55:57.933Z,100824.11
2019-06-01T16:58:30.155Z,100825.49
2019-06-01T17:01:02.698Z,100824.20
2019-06-01T17:03:34.699Z,100826.50
2019-06-01T17:06:06.951Z,100820.84
2019-06-01T17:08:39.421Z,100828.76
2019-06-01T17:11:11.416Z,100825.98
2019-06-01T17:13:43.290Z,100820.23
2019-06-01T17:16:15.352Z,100819.80
2019-06-01T17:18:47.267Z,100822.22
2019-06-01T17:21:19.292Z,100815.94
2019-06-01T17:23:51.216Z,100814.16
2019-06-01T17:26:23.316Z,100814.41
2019-06-01T17:28:55.106Z,100814.15
2019-06-01T17:31:27.106Z,100811.66
2019-06-01T17:34:00.317Z,100812.83
2019-06-01T17:36:33.838Z,100812.55
2019-06-01T17:39:08.089Z,100810.41
2019-06-01T17:41:40.438Z,100806.39
2019-06-01T17:44:12.889Z,100807.52
2019-06-01T17:46:53.570Z,100804.92
2019-06-01T17:49:18.309Z,100808.69
2019-06-01T17:51:50.416Z,100808.47
2019-06-01T17:54:22.326Z,100810.59
2019-06-01T17:56:55.401Z,100808.53
2019-06-01T17:59:28.373Z,100810.64
2019-06-01T18:02:01.657Z,100822.50
2019-06-01T18:04:34.194Z,100822.23
2019-06-01T18:07:06.408Z,100820.78
2019-06-01T18:09:38.619Z,100828.59
2019-06-01T18:12:10.583Z,100833.89
2019-06-01T18:14:42.402Z,100832.44
2019-06-01T18:17:14.555Z,100829.48
2019-06-01T18:19:46.381Z,100829.19
2019-06-01T18:22:18.496Z,100825.87
2019-06-01T18:24:50.646Z,100827.11
2019-06-01T18:27:22.691Z,100826.31
2019-06-01T18:29:54.615Z,100821.81
2019-06-01T18:32:32.196Z,100825.87
2019-06-01T18:35:04.931Z,100830.41
2019-06-01T18:37:36.883Z,100830.77
2019-06-01T18:40:09.810Z,100836.33
2019-06-01T18:42:42.594Z,100831.67
2019-06-01T18:45:15.856Z,100834.05
2019-06-01T18:47:48.132Z,100830.84
2019-06-01T18:50:20.393Z,100833.90
2019-06-01T18:52:52.642Z,100833.91
2019-06-01T18:55:27.552Z,100835.44
2019-06-01T18:58:03.915Z,100834.27
2019-06-01T19:00:39.542Z,100845.64
2019-06-01T19:03:11.621Z,100848.28
2019-06-01T19:05:43.551Z,100848.27
2019-06-01T19:08:16.169Z,100850.58
2019-06-01T19:10:49.527Z,100858.39
2019-06-01T19:13:22.142Z,100856.19
2019-06-01T19:15:54.087Z,100856.98
2019-06-01T19:18:26.166Z,100851.08
2019-06-01T19:20:58.022Z,100853.99
2019-06-01T19:23:29.794Z,100853.27
2019-06-01T19:26:01.745Z,100863.08
2019-06-01T19:28:33.638Z,100856.53
2019-06-01T19:31:06.686Z,100860.80
2019-06-01T19:33:38.889Z,100869.11
2019-06-01T19:36:11.366Z,100872.43
2019-06-01T19:38:45.889Z,100869.54
2019-06-01T19:41:18.036Z,100870.45
2019-06-01T19:43:50.068Z,100873.56
2019-06-01T19:46:22.014Z,100873.45
2019-06-01T19:48:54.029Z,100872.69
2019-06-01T19:51:25.827Z,100875.78
2019-06-01T19:53:57.953Z,100875.23
2019-06-01T19:56:29.836Z,100872.17
2019-06-01T19:59:01.994Z,100875.80
2019-06-01T20:01:33.864Z,100879.20
2019-06-01T20:04:06.021Z,100874.78
2019-06-01T20:06:37.841Z,100881.06
2019-06-01T20:09:10.930Z,100874.98
2019-06-01T20:11:43.140Z,100876.92
2019-06-01T20:14:16.344Z,100870.84
2019-06-01T20:16:48.511Z,100876.25
2019-06-01T20:19:20.342Z,100875.86
2019-06-01T20:21:52.209Z,100875.78
2019-06-01T20:24:24.299Z,100879.10
2019-06-01T20:26:57.363Z,100881.08
2019-06-01T20:29:29.554Z,100877.23
2019-06-01T20:32:01.444Z,100877.37
2019-06-01T20:34:33.798Z,100877.33
2019-06-01T20:37:05.601Z,100879.73
2019-06-01T20:39:37.614Z,100876.31
2019-06-01T20:42:20.928Z,100874.08
2019-06-01T20:44:43.271Z,100875.36
2019-06-01T20:47:16.548Z,100876.80
2019-06-01T20:49:49.719Z,100872.17
2019-06-01T20:52:23.291Z,100870.25
2019-06-01T20:54:55.724Z,100869.98
2019-06-01T20:57:28.080Z,100871.88
2019-06-01T21:00:00.068Z,100871.60
2019-06-01T21:02:31.864Z,100868.11
2019-06-01T21:05:04.217Z,100870.08
2019-06-01T21:07:36.018Z,100872.30
2019-06-01T21:10:09.075Z,100872.85
2019-06-01T21:12:45.463Z,100866.97
2019-06-01T21:15:17.137Z,100868.72
2019-06-01T21:17:50.353Z,100873.30
2019-06-01T21:20:28.522Z,100874.34
2019-06-01T21:22:56.248Z,100868.05
2019-06-01T21:25:28.424Z,100868.95
2019-06-01T21:28:00.511Z,100867.41
2019-06-01T21:30:32.542Z,100867.67
2019-06-01T21:33:04.352Z,100879.45
2019-06-01T21:35:36.192Z,100876.70
2019-06-01T21:38:08.123Z,100877.47
2019-06-01T21:40:40.207Z,100881.27
2019-06-01T21:43:23.896Z,100881.53
2019-06-01T21:45:46.886Z,100882.86
2019-06-01T21:48:19.749Z,100882.63
2019-06-01T21:50:52.034Z,100877.75
2019-06-01T21:53:24.566Z,100874.86
2019-06-01T21:55:56.689Z,100874.79
2019-06-01T21:58:28.974Z,100877.66
2019-06-01T22:01:01.156Z,100875.66
2019-06-01T22:03:34.539Z,100876.09
2019-06-01T22:06:06.447Z,100877.81
2019-06-01T22:08:38.523Z,100871.59
2019-06-01T22:11:10.511Z,100879.60
2019-06-01T22:13:42.323Z,100885.55
2019-06-01T22:16:14.182Z,100878.46
2019-06-01T22:18:45.976Z,100881.37
2019-06-01T22:21:17.824Z,100888.52
2019-06-01T22:23:50.781Z,100888.78
2019-06-01T22:26:23.954Z,100889.92
2019-06-01T22:28:55.928Z,100893.12
2019-06-01T22:31:28.695Z,100891.23
2019-06-01T22:34:00.712Z,100889.66
2019-06-01T22:36:32.814Z,100889.33
2019-06-01T22:39:05.831Z,100884.53
2019-06-01T22:41:39.394Z,100887.68
2019-06-01T22:44:13.077Z,100891.17
2019-06-01T22:46:45.342Z,100893.45
2019-06-01T22:49:17.112Z,100893.62
2019-06-01T22:51:49.085Z,100886.98
2019-06-01T22:54:21.098Z,100894.32
2019-06-01T22:56:53.347Z,100888.30
2019-06-01T22:59:26.587Z,100895.91
2019-06-01T23:01:58.794Z,100892.56
2019-06-01T23:04:31.391Z,100886.20
2019-06-01T23:07:03.969Z,100888.25
2019-06-01T23:09:35.778Z,100888.30
2019-06-01T23:12:08.008Z,100886.52
2019-06-01T23:14:40.048Z,100887.64
2019-06-01T23:17:11.982Z,100888.47
2019-06-01T23:19:44.119Z,100885.72
2019-06-01T23:22:16.571Z,100881.37
2019-06-01T23:24:48.329Z,100878.02
2019-06-01T23:27:20.500Z,100881.51
2019-06-01T23:29:52.347Z,100882.72
2019-06-01T23:32:24.523Z,100884.17
2019-06-01T23:34:56.714Z,100879.02
2019-06-01T23:37:28.872Z,100878.52
2019-06-01T23:40:00.939Z,100876.70
2019-06-01T23:42:33.091Z,100869.36
2019-06-01T23:45:05.178Z,100870.45
2019-06-01T23:47:38.414Z,100869.65
2019-06-01T23:50:10.368Z,100875.23
2019-06-01T23:52:42.389Z,100872.84
2019-06-01T23:55:14.521Z,100870.43
2019-06-01T23:57:46.347Z,100864.41
